Time;durP1;ratioP1;P1;durP2;ratioP2;P2;SDS_P1;SDS_P2;PMS_P1;PMS_P2;Temp;Humidity;BMP_temperature;BMP_pressure;BME280_temperature;BME280_humidity;BME280_pressure;Samples;Min_cycle;Max_cycle;Signal;HPM_P1;HPM_P2
2024/01/18 00:02:40;;;;;;;222.43;77.80;;;;;;;0.55;100.00;98426.06;5569464;32;33941;-73
2024/01/18 00:05:43;;;;;;;237.00;79.55;;;;;;;0.48;100.00;98417.22;5569088;32;34695;-72
2024/01/18 00:08:46;;;;;;;223.05;77.55;;;;;;;0.64;100.00;98412.09;5568854;32;34039;-71
2024/01/18 00:11:49;;;;;;;210.18;76.90;;;;;;;0.68;100.00;98413.41;5555035;32;34065;-73
2024/01/18 00:14:52;;;;;;;200.20;73.95;;;;;;;0.67;100.00;98413.59;5569221;32;34000;-72
2024/01/18 00:17:55;;;;;;;264.80;79.10;;;;;;;0.71;100.00;98413.13;5568851;32;34075;-71
2024/01/18 00:20:58;;;;;;;182.90;73.53;;;;;;;0.82;100.00;98399.00;5568734;32;33982;-71
2024/01/18 00:24:01;;;;;;;192.68;73.07;;;;;;;0.67;100.00;98383.09;5568732;32;34178;-72
2024/01/18 00:27:04;;;;;;;191.55;71.22;;;;;;;0.79;100.00;98391.47;5555196;32;33988;-73
2024/01/18 00:30:07;;;;;;;187.10;72.12;;;;;;;0.77;100.00;98393.44;5568540;32;34620;-72
2024/01/18 00:33:10;;;;;;;186.93;70.95;;;;;;;0.75;100.00;98397.97;5568641;32;34096;-74
2024/01/18 00:36:13;;;;;;;185.02;70.03;;;;;;;0.81;100.00;98387.75;5555314;32;33939;-71
2024/01/18 00:39:19;;;;;;;175.77;69.85;;;;;;;0.88;100.00;98386.13;5568455;32;34730;-71
2024/01/18 00:42:22;;;;;;;179.07;69.72;;;;;;;0.79;100.00;98367.97;5568270;32;35028;-71
2024/01/18 00:45:26;;;;;;;178.20;71.82;;;;;;;0.79;100.00;98370.59;5568542;32;34093;-71
2024/01/18 00:48:30;;;;;;;171.68;70.70;;;;;;;0.78;100.00;98395.03;5568712;32;34646;-71
2024/01/18 00:51:33;;;;;;;163.25;68.45;;;;;;;0.78;100.00;98376.78;5570357;32;34190;-71
2024/01/18 00:54:37;;;;;;;171.13;69.82;;;;;;;0.77;100.00;98388.22;5570637;32;34841;-71
2024/01/18 00:57:40;;;;;;;159.15;65.40;;;;;;;0.87;100.00;98381.88;5570765;32;34190;-71
2024/01/18 01:00:43;;;;;;;166.57;67.97;;;;;;;0.95;100.00;98367.25;5570749;32;34078;-72
2024/01/18 01:03:47;;;;;;;147.10;65.45;;;;;;;0.98;100.00;98366.94;5570736;32;34061;-72
2024/01/18 01:06:50;;;;;;;159.15;64.97;;;;;;;0.88;100.00;98360.03;5570765;32;34049;-72
2024/01/18 01:09:53;;;;;;;141.73;63.70;;;;;;;0.97;100.00;98358.28;5556975;32;34076;-71
2024/01/18 01:12:56;;;;;;;179.43;69.45;;;;;;;0.88;100.00;98351.38;5556712;32;33995;-72
2024/01/18 01:15:59;;;;;;;146.43;65.65;;;;;;;1.00;100.00;98349.31;5570705;32;34706;-72
2024/01/18 01:19:05;;;;;;;144.62;65.37;;;;;;;0.96;100.00;98329.72;5570587;32;34551;-72
2024/01/18 01:22:08;;;;;;;155.98;69.03;;;;;;;0.96;100.00;98335.78;5543798;32;34702;-72
2024/01/18 01:25:11;;;;;;;150.07;66.25;;;;;;;0.98;100.00;98327.75;5570492;32;34105;-72
2024/01/18 01:28:14;;;;;;;161.50;66.87;;;;;;;1.02;100.00;98324.69;5570325;32;34081;-72
2024/01/18 01:31:17;;;;;;;165.60;66.70;;;;;;;1.10;100.00;98324.72;5570513;32;32436;-72
2024/01/18 01:34:20;;;;;;;132.85;61.50;;;;;;;1.16;100.00;98315.44;5556600;32;34652;-71
2024/01/18 01:37:24;;;;;;;145.57;64.87;;;;;;;1.17;100.00;98310.06;5570462;32;33441;-72
2024/01/18 01:40:27;;;;;;;137.75;63.97;;;;;;;1.09;100.00;98301.37;5570298;32;33982;-72
2024/01/18 01:43:30;;;;;;;144.27;64.03;;;;;;;1.00;100.00;98295.31;5570268;32;34958;-71
2024/01/18 01:46:33;;;;;;;132.15;62.65;;;;;;;1.20;100.00;98283.63;5570341;32;34042;-71
2024/01/18 01:49:36;;;;;;;154.43;65.40;;;;;;;1.16;100.00;98284.91;5570304;32;34210;-72
2024/01/18 01:52:42;;;;;;;146.30;66.12;;;;;;;1.14;100.00;98268.59;5570349;32;34668;-72
2024/01/18 01:55:45;;;;;;;152.25;68.82;;;;;;;1.08;100.00;98265.78;5570593;32;34677;-72
2024/01/18 01:58:49;;;;;;;153.00;64.97;;;;;;;1.12;100.00;98260.09;5556416;32;34055;-72
2024/01/18 02:01:53;;;;;;;154.63;66.87;;;;;;;1.23;100.00;98253.75;5569774;32;34673;-72
2024/01/18 02:04:56;;;;;;;159.27;66.53;;;;;;;1.23;100.00;98257.19;5570265;32;34186;-71
2024/01/18 02:07:59;;;;;;;129.80;62.15;;;;;;;1.30;100.00;98266.03;5570183;32;34161;-72
2024/01/18 02:11:03;;;;;;;125.85;62.80;;;;;;;1.38;100.00;98259.16;5570081;32;34210;-71
2024/01/18 02:14:07;;;;;;;130.12;63.20;;;;;;;1.46;100.00;98257.38;5569943;32;33919;-72
2024/01/18 02:17:11;;;;;;;127.28;62.47;;;;;;;1.25;100.00;98252.62;5556852;32;34066;-72
2024/01/18 02:20:14;;;;;;;139.52;64.00;;;;;;;1.27;100.00;98237.59;5570019;32;34003;-72
2024/01/18 02:23:18;;;;;;;129.95;63.35;;;;;;;1.38;100.00;98235.66;5569842;32;34685;-72
2024/01/18 02:26:21;;;;;;;119.72;60.40;;;;;;;1.46;100.00;98223.41;5569942;32;33883;-71
2024/01/18 02:29:25;;;;;;;128.32;61.33;;;;;;;1.42;100.00;98214.25;5556395;32;34736;-71
2024/01/18 02:32:28;;;;;;;132.75;62.17;;;;;;;1.33;100.00;98210.03;5569858;32;34076;-72
2024/01/18 02:35:33;;;;;;;134.30;61.83;;;;;;;1.34;100.00;98224.72;5569833;32;34897;-72
2024/01/18 02:38:38;;;;;;;143.48;63.95;;;;;;;1.46;100.00;98220.78;5569771;32;33944;-72
2024/01/18 02:41:43;;;;;;;125.82;60.30;;;;;;;1.52;100.00;98219.34;5569805;32;33955;-71
2024/01/18 02:44:47;;;;;;;116.03;59.20;;;;;;;1.58;100.00;98218.69;5556151;32;33969;-72
2024/01/18 02:47:54;;;;;;;124.05;60.85;;;;;;;1.51;100.00;98222.91;5569849;32;34406;-72
2024/01/18 02:50:57;;;;;;;132.10;62.30;;;;;;;1.51;100.00;98213.28;5556063;32;34254;-72
2024/01/18 02:54:00;;;;;;;127.50;60.33;;;;;;;1.45;100.00;98203.50;5556393;32;34659;-72
2024/01/18 02:57:04;;;;;;;133.37;60.88;;;;;;;1.55;100.00;98188.47;5569748;32;34583;-71
2024/01/18 03:00:07;;;;;;;124.68;59.33;;;;;;;1.66;100.00;98192.53;5569615;32;34610;-72
2024/01/18 03:03:10;;;;;;;127.05;60.03;;;;;;;1.70;100.00;98180.75;5569562;32;34711;-72
2024/01/18 03:06:13;;;;;;;113.00;56.35;;;;;;;1.73;100.00;98196.97;5569590;32;34679;-71
2024/01/18 03:09:16;;;;;;;115.72;55.97;;;;;;;1.79;100.00;98186.81;5556024;32;34915;-71
2024/01/18 03:12:20;;;;;;;122.87;57.60;;;;;;;1.84;100.00;98184.53;5569299;32;33618;-72
2024/01/18 03:15:23;;;;;;;119.05;55.42;;;;;;;1.82;100.00;98192.53;5568536;32;34716;-72
2024/01/18 03:18:26;;;;;;;108.95;54.22;;;;;;;1.85;100.00;98192.19;5569575;32;33868;-71
2024/01/18 03:21:29;;;;;;;117.05;55.95;;;;;;;1.86;100.00;98185.16;5569562;32;34923;-71
2024/01/18 03:24:32;;;;;;;113.55;54.72;;;;;;;1.90;100.00;98189.88;5569689;32;33989;-72
2024/01/18 03:27:35;;;;;;;117.85;54.83;;;;;;;1.98;100.00;98186.47;5569416;32;34695;-72
2024/01/18 03:30:40;;;;;;;101.85;51.05;;;;;;;2.09;100.00;98178.25;5569453;32;34258;-72
2024/01/18 03:33:45;;;;;;;110.28;52.95;;;;;;;2.08;100.00;98182.66;5569456;32;33984;-72
2024/01/18 03:36:48;;;;;;;123.50;54.05;;;;;;;2.07;100.00;98186.28;5543043;32;34676;-72
2024/01/18 03:39:52;;;;;;;112.57;51.95;;;;;;;2.21;100.00;98171.69;5569389;32;33890;-72
2024/01/18 03:42:56;;;;;;;85.65;45.60;;;;;;;2.27;100.00;98185.88;5555735;32;33995;-72
2024/01/18 03:45:59;;;;;;;114.18;52.22;;;;;;;2.35;100.00;98176.19;5569293;32;34006;-73
2024/01/18 03:49:02;;;;;;;94.00;48.53;;;;;;;2.49;100.00;98174.66;5569419;32;33927;-73
2024/01/18 03:52:05;;;;;;;93.25;44.75;;;;;;;2.53;100.00;98168.09;5569230;32;33920;-73
2024/01/18 03:55:08;;;;;;;93.47;45.33;;;;;;;2.57;100.00;98172.81;5569022;32;34160;-73
2024/01/18 03:58:11;;;;;;;90.12;46.00;;;;;;;2.72;100.00;98178.16;5569103;32;35028;-72
2024/01/18 04:01:15;;;;;;;95.35;46.90;;;;;;;2.67;100.00;98175.22;5555565;32;34011;-73
2024/01/18 04:04:18;;;;;;;96.75;44.80;;;;;;;2.81;100.00;98179.72;5568982;32;34698;-72
2024/01/18 04:07:22;;;;;;;70.68;37.63;;;;;;;2.89;100.00;98174.47;5569062;32;33947;-73
2024/01/18 04:10:25;;;;;;;64.22;37.70;;;;;;;3.01;100.00;98174.88;5568921;32;33947;-73
2024/01/18 04:13:27;;;;;;;70.10;38.65;;;;;;;3.03;100.00;98178.16;5568678;32;34006;-73
2024/01/18 04:16:31;;;;;;;68.15;36.08;;;;;;;3.12;100.00;98165.81;5568782;32;34695;-73
2024/01/18 04:19:34;;;;;;;62.38;36.15;;;;;;;3.24;100.00;98160.00;5568842;32;33984;-74
2024/01/18 04:22:37;;;;;;;61.35;34.67;;;;;;;3.36;100.00;98160.38;5568790;32;34144;-74
2024/01/18 04:25:41;;;;;;;58.55;34.78;;;;;;;3.43;100.00;98154.28;5568435;32;33976;-74
2024/01/18 04:28:44;;;;;;;66.28;35.85;;;;;;;3.42;100.00;98143.94;5568658;32;33982;-73
2024/01/18 04:31:47;;;;;;;64.30;33.33;;;;;;;3.45;100.00;98147.03;5554807;32;34407;-73
2024/01/18 04:34:51;;;;;;;59.92;33.05;;;;;;;3.49;100.00;98144.84;5568524;32;34004;-73
2024/01/18 04:37:53;;;;;;;54.55;31.95;;;;;;;3.58;100.00;98143.81;5568491;32;34630;-73
2024/01/18 04:40:56;;;;;;;47.60;28.73;;;;;;;3.64;100.00;98135.22;5568574;32;34647;-73
2024/01/18 04:43:59;;;;;;;46.50;29.27;;;;;;;3.83;100.00;98123.38;5568379;32;34025;-73
2024/01/18 04:47:02;;;;;;;44.80;29.90;;;;;;;4.13;100.00;98126.84;5568435;32;34705;-73
2024/01/18 04:50:08;;;;;;;47.83;30.02;;;;;;;4.22;100.00;98121.31;5568692;32;34164;-74
2024/01/18 04:53:11;;;;;;;47.62;29.80;;;;;;;4.16;100.00;98123.88;5568269;32;33903;-74
2024/01/18 04:56:14;;;;;;;46.70;28.15;;;;;;;4.11;100.00;98123.59;5568169;32;34084;-73
2024/01/18 04:59:17;;;;;;;48.63;27.90;;;;;;;4.08;100.00;98130.00;5568092;32;34789;-73
2024/01/18 05:02:20;;;;;;;48.30;27.98;;;;;;;4.14;100.00;98129.28;5568468;32;34661;-73
2024/01/18 05:05:24;;;;;;;43.03;27.85;;;;;;;4.08;100.00;98119.50;5568193;32;34277;-73
2024/01/18 05:08:27;;;;;;;46.17;28.92;;;;;;;4.21;100.00;98124.13;5567951;32;33915;-73
2024/01/18 05:11:30;;;;;;;47.05;28.67;;;;;;;4.25;100.00;98128.84;5554211;32;33975;-74
2024/01/18 05:14:33;;;;;;;43.17;28.05;;;;;;;4.28;100.00;98125.03;5567618;32;34126;-73
2024/01/18 05:17:37;;;;;;;42.88;26.83;;;;;;;4.22;100.00;98129.19;5567851;32;34008;-73
2024/01/18 05:20:40;;;;;;;36.42;25.60;;;;;;;4.28;100.00;98127.66;5553862;32;34123;-73
2024/01/18 05:23:43;;;;;;;40.22;26.55;;;;;;;4.36;100.00;98120.47;5567618;32;33972;-73
2024/01/18 05:26:46;;;;;;;38.38;26.30;;;;;;;4.40;100.00;98117.50;5567734;32;33927;-73
2024/01/18 05:29:49;;;;;;;39.05;26.02;;;;;;;4.47;100.00;98113.13;5567512;32;34136;-73
2024/01/18 05:32:51;;;;;;;38.78;26.25;;;;;;;4.48;100.00;98125.25;5567490;32;34308;-73
2024/01/18 05:35:54;;;;;;;38.15;25.25;;;;;;;4.54;100.00;98130.59;5553903;32;33920;-73
2024/01/18 05:38:57;;;;;;;39.63;26.48;;;;;;;4.52;100.00;98123.91;5570028;32;33989;-74
2024/01/18 05:42:00;;;;;;;37.28;25.75;;;;;;;4.43;100.00;98119.75;5570351;32;34047;-73
2024/01/18 05:45:05;;;;;;;41.00;26.60;;;;;;;4.51;100.00;98117.00;5570080;32;33956;-73
2024/01/18 05:48:08;;;;;;;36.85;23.95;;;;;;;4.48;100.00;98114.75;5570238;32;35002;-74
2024/01/18 05:51:11;;;;;;;34.53;24.95;;;;;;;4.47;100.00;98110.50;5570257;32;34062;-73
2024/01/18 05:54:16;;;;;;;33.58;24.10;;;;;;;4.47;100.00;98111.31;5556574;32;34659;-73
2024/01/18 05:57:19;;;;;;;34.53;24.33;;;;;;;4.52;100.00;98118.63;5556457;32;34132;-72
2024/01/18 06:00:24;;;;;;;35.17;23.98;;;;;;;4.54;100.00;98114.03;5570113;32;33903;-72
2024/01/18 06:03:27;;;;;;;39.38;25.50;;;;;;;4.52;100.00;98121.28;5570291;32;33802;-73
2024/01/18 06:06:31;;;;;;;37.65;25.20;;;;;;;4.54;100.00;98119.28;5570240;32;34046;-73
2024/01/18 06:09:34;;;;;;;40.95;26.37;;;;;;;4.56;100.00;98117.28;5570343;32;34064;-73
2024/01/18 06:12:37;;;;;;;31.92;24.27;;;;;;;4.52;100.00;98118.63;5569781;32;33675;-74
2024/01/18 06:15:42;;;;;;;33.72;24.73;;;;;;;4.65;100.00;98121.41;5556308;32;34048;-73
2024/01/18 06:18:45;;;;;;;36.70;25.25;;;;;;;4.65;100.00;98121.41;5569975;32;33995;-73
2024/01/18 06:21:48;;;;;;;37.95;25.77;;;;;;;4.70;100.00;98121.66;5556205;32;34089;-73
2024/01/18 06:24:51;;;;;;;37.97;25.85;;;;;;;4.72;100.00;98123.12;5569912;32;34209;-73
2024/01/18 06:27:54;;;;;;;41.55;26.85;;;;;;;4.71;100.00;98132.00;5569707;32;34022;-72
2024/01/18 06:32:05;;;;;;;42.83;28.80;;;;;;;4.66;100.00;98115.97;5561288;32;94494;-73
2024/01/18 06:35:13;;;;;;;48.75;29.58;;;;;;;4.66;100.00;98123.03;5564178;32;34839;-73
2024/01/18 06:38:16;;;;;;;40.33;27.10;;;;;;;4.72;100.00;98128.38;5563295;32;34052;-73
2024/01/18 06:41:23;;;;;;;64.68;33.40;;;;;;;4.71;100.00;98134.63;5563202;32;33795;-73
2024/01/18 06:44:26;;;;;;;69.20;36.55;;;;;;;4.66;100.00;98131.75;5563209;32;33933;-73
2024/01/18 06:47:31;;;;;;;76.47;39.15;;;;;;;4.51;100.00;98135.38;5563940;32;33851;-73
2024/01/18 06:50:34;;;;;;;77.40;40.65;;;;;;;4.30;100.00;98133.53;5563208;32;33868;-73
2024/01/18 06:53:39;;;;;;;100.82;44.83;;;;;;;4.08;100.00;98131.81;5564372;32;34024;-73
2024/01/18 06:56:44;;;;;;;95.35;45.20;;;;;;;4.07;100.00;98125.75;5563956;32;34002;-73
2024/01/18 06:59:49;;;;;;;104.07;47.60;;;;;;;4.04;100.00;98123.50;5564034;32;34897;-74
2024/01/18 07:02:55;;;;;;;95.60;46.00;;;;;;;3.96;100.00;98131.47;5550838;32;33870;-72
2024/01/18 07:05:58;;;;;;;91.15;45.35;;;;;;;3.92;100.00;98135.44;5564101;32;33860;-73
2024/01/18 07:09:01;;;;;;;96.80;46.40;;;;;;;3.96;100.00;98134.09;5563427;32;33861;-72
2024/01/18 07:12:05;;;;;;;87.43;43.92;;;;;;;3.99;100.00;98138.97;5563248;32;34309;-73
2024/01/18 07:15:08;;;;;;;82.62;42.70;;;;;;;4.00;100.00;98132.72;5563779;32;33904;-74
2024/01/18 07:18:14;;;;;;;89.93;46.28;;;;;;;3.96;100.00;98128.03;5563639;32;33949;-73
2024/01/18 07:21:17;;;;;;;90.10;48.90;;;;;;;3.92;100.00;98128.38;5563633;32;33978;-73
2024/01/18 07:24:26;;;;;;;102.30;49.60;;;;;;;3.85;100.00;98130.09;5563213;32;33844;-74
2024/01/18 07:27:29;;;;;;;97.32;50.53;;;;;;;3.89;100.00;98126.13;5564038;32;34900;-74
2024/01/18 07:30:33;;;;;;;91.07;49.65;;;;;;;3.89;100.00;98141.03;5563188;32;33952;-73
2024/01/18 07:33:37;;;;;;;92.18;49.50;;;;;;;3.96;100.00;98139.34;5563942;32;33939;-73
2024/01/18 07:36:44;;;;;;;103.12;54.35;;;;;;;3.85;100.00;98134.53;5563333;32;33904;-72
2024/01/18 07:39:51;;;;;;;108.25;53.28;;;;;;;3.85;100.00;98151.09;5563611;32;33990;-72
2024/01/18 07:42:55;;;;;;;105.47;53.97;;;;;;;3.96;100.00;98149.00;5553115;32;34598;-72
2024/01/18 07:45:58;;;;;;;107.57;54.42;;;;;;;3.89;100.00;98154.97;5550602;32;33980;-73
2024/01/18 07:49:01;;;;;;;103.72;54.17;;;;;;;3.97;100.00;98150.66;5550542;32;33953;-73
2024/01/18 07:52:05;;;;;;;102.07;54.05;;;;;;;4.00;100.00;98148.47;5537203;32;33994;-72
2024/01/18 07:55:08;;;;;;;107.15;54.58;;;;;;;4.01;100.00;98159.78;5550239;32;34747;-72
2024/01/18 07:58:13;;;;;;;109.22;55.50;;;;;;;4.04;100.00;98154.16;5549427;32;33928;-73
2024/01/18 08:01:19;;;;;;;122.70;55.58;;;;;;;4.06;100.00;98157.44;5550251;32;34486;-72
2024/01/18 08:04:22;;;;;;;126.95;59.15;;;;;;;4.03;100.00;98160.41;5550500;32;34042;-73
2024/01/18 08:07:31;;;;;;;104.78;55.72;;;;;;;4.05;100.00;98154.00;5550147;32;34162;-73
2024/01/18 08:10:34;;;;;;;114.07;59.22;;;;;;;3.95;100.00;98150.81;5550233;32;33871;-73
2024/01/18 08:13:37;;;;;;;109.47;57.28;;;;;;;3.93;100.00;98155.41;5550314;32;34021;-73
2024/01/18 08:16:40;;;;;;;115.90;58.35;;;;;;;4.01;100.00;98157.97;5550289;32;33996;-73
2024/01/18 08:19:42;;;;;;;97.90;54.22;;;;;;;4.16;100.00;98156.19;5550388;32;33970;-74
2024/01/18 08:22:48;;;;;;;147.52;64.35;;;;;;;4.24;100.00;98163.94;5550434;32;34032;-73
2024/01/18 08:25:52;;;;;;;126.62;59.00;;;;;;;4.33;100.00;98167.28;5550602;32;34616;-72
2024/01/18 08:28:55;;;;;;;104.75;55.85;;;;;;;4.39;100.00;98169.19;5550748;32;34524;-73
2024/01/18 08:31:58;;;;;;;102.82;58.45;;;;;;;4.41;100.00;98169.81;5549098;32;33629;-72
2024/01/18 08:35:03;;;;;;;108.32;57.60;;;;;;;4.37;100.00;98165.91;5550384;32;34234;-73
2024/01/18 08:38:06;;;;;;;124.32;63.70;;;;;;;4.54;100.00;98170.00;5550421;32;33917;-73
2024/01/18 08:41:10;;;;;;;121.80;61.25;;;;;;;4.70;100.00;98166.31;5550554;32;33547;-73
2024/01/18 08:44:16;;;;;;;117.05;61.45;;;;;;;4.70;100.00;98169.75;5550453;32;34593;-72
2024/01/18 08:47:19;;;;;;;111.05;63.53;;;;;;;4.67;100.00;98164.87;5549692;32;34624;-72
2024/01/18 08:50:23;;;;;;;107.90;60.85;;;;;;;4.66;100.00;98173.75;5549608;32;34622;-72
2024/01/18 08:53:30;;;;;;;104.03;58.40;;;;;;;4.78;100.00;98171.47;5549194;32;33997;-72
2024/01/18 08:56:35;;;;;;;103.93;59.05;;;;;;;4.94;100.00;98179.13;5536706;32;33924;-73
2024/01/18 08:59:38;;;;;;;108.07;57.92;;;;;;;4.99;100.00;98176.75;5549898;32;34583;-72
2024/01/18 09:02:40;;;;;;;99.53;58.03;;;;;;;4.87;100.00;98183.50;5550040;32;35072;-73
2024/01/18 09:05:43;;;;;;;105.32;57.85;;;;;;;4.89;100.00;98189.38;5550335;32;34026;-72
2024/01/18 09:08:46;;;;;;;104.32;58.58;;;;;;;4.84;100.00;98196.19;5549644;32;34645;-73
2024/01/18 09:11:49;;;;;;;105.93;57.85;;;;;;;4.79;100.00;98189.66;5549943;32;34023;-72
2024/01/18 09:14:54;;;;;;;94.75;55.42;;;;;;;4.88;100.00;98206.16;5550249;32;34906;-72
2024/01/18 09:17:57;;;;;;;86.35;52.70;;;;;;;4.80;100.00;98199.19;5550004;32;33893;-72
2024/01/18 09:21:01;;;;;;;94.18;56.03;;;;;;;4.71;100.00;98204.72;5550089;32;33787;-73
2024/01/18 09:24:04;;;;;;;100.20;58.42;;;;;;;4.91;100.00;98192.63;5550072;32;33902;-72
2024/01/18 09:27:07;;;;;;;115.45;61.37;;;;;;;4.71;100.00;98189.78;5549725;32;34542;-72
2024/01/18 09:30:12;;;;;;;89.72;54.17;;;;;;;4.98;100.00;98193.53;5549723;32;34024;-72
2024/01/18 09:33:15;;;;;;;88.70;54.53;;;;;;;5.19;100.00;98190.91;5549847;32;34006;-72
2024/01/18 09:36:18;;;;;;;86.32;51.97;;;;;;;5.14;100.00;98188.03;5549840;32;34619;-72
2024/01/18 09:39:21;;;;;;;84.72;51.90;;;;;;;5.36;100.00;98185.44;5549913;32;33883;-73
2024/01/18 09:42:31;;;;;;;93.75;52.72;;;;;;;5.42;100.00;98180.22;5549835;32;33981;-72
2024/01/18 09:45:39;;;;;;;80.00;49.90;;;;;;;5.41;100.00;98181.22;5549893;32;33914;-73
2024/01/18 09:48:44;;;;;;;84.62;51.05;;;;;;;5.54;100.00;98183.16;5549007;32;34022;-73
2024/01/18 09:51:47;;;;;;;81.85;50.05;;;;;;;5.54;100.00;98183.97;5549851;32;34577;-73
2024/01/18 09:54:50;;;;;;;77.50;49.47;;;;;;;5.54;100.00;98186.59;5549677;32;34617;-73
2024/01/18 09:57:56;;;;;;;77.37;49.67;;;;;;;5.54;100.00;98178.72;5548934;32;34298;-73
2024/01/18 10:00:59;;;;;;;79.40;50.67;;;;;;;5.53;100.00;98157.84;5549568;32;33916;-73
2024/01/18 10:04:02;;;;;;;79.68;50.28;;;;;;;5.51;100.00;98152.00;5549225;32;33909;-73
2024/01/18 10:07:05;;;;;;;79.03;49.75;;;;;;;5.53;100.00;98158.66;5549664;32;33983;-73
2024/01/18 10:10:12;;;;;;;81.78;49.83;;;;;;;5.53;100.00;98156.03;5549526;32;33958;-74
2024/01/18 10:13:15;;;;;;;74.43;46.85;;;;;;;5.53;100.00;98149.97;5536270;32;33871;-73
2024/01/18 10:16:28;;;;;;;76.95;48.15;;;;;;;5.55;100.00;98154.03;5549402;32;34661;-73
2024/01/18 10:19:33;;;;;;;77.87;48.30;;;;;;;5.46;100.00;98164.87;5549127;32;34679;-75
2024/01/18 10:22:38;;;;;;;74.60;47.15;;;;;;;5.36;100.00;98165.22;5549349;32;34081;-75
2024/01/18 10:25:44;;;;;;;78.40;49.92;;;;;;;5.43;100.00;98157.34;5549218;32;33865;-73
2024/01/18 10:28:48;;;;;;;75.82;48.67;;;;;;;5.30;100.00;98146.72;5549358;32;34732;-74
2024/01/18 10:31:58;;;;;;;82.03;51.58;;;;;;;5.37;100.00;98153.69;5548950;32;33304;-73
2024/01/18 10:35:02;;;;;;;90.63;54.87;;;;;;;5.34;100.00;98146.16;5549147;32;34722;-74
2024/01/18 10:38:07;;;;;;;89.43;53.58;;;;;;;5.36;100.00;98148.63;5548289;32;34493;-73
2024/01/18 10:41:11;;;;;;;85.50;52.08;;;;;;;5.24;100.00;98143.84;5538109;32;33840;-74
2024/01/18 10:44:14;;;;;;;83.20;52.22;;;;;;;5.18;100.00;98152.50;5550946;32;33952;-73
2024/01/18 10:47:22;;;;;;;89.47;53.10;;;;;;;5.18;100.00;98155.13;5548976;32;34109;-74
2024/01/18 10:50:28;;;;;;;75.70;47.90;;;;;;;5.26;100.00;98151.56;5550145;32;33878;-75
2024/01/18 10:53:33;;;;;;;80.90;52.05;;;;;;;5.15;100.00;98154.69;5548699;32;33974;-72
2024/01/18 10:56:38;;;;;;;70.78;46.92;;;;;;;5.20;100.00;98155.75;5549479;32;33998;-73
2024/01/18 10:59:41;;;;;;;66.75;44.42;;;;;;;5.22;100.00;98159.03;5548718;32;33978;-74
2024/01/18 11:02:45;;;;;;;65.10;45.10;;;;;;;5.22;100.00;98161.66;5547772;32;33868;-73
2024/01/18 11:05:49;;;;;;;63.00;44.25;;;;;;;5.19;100.00;98145.41;5547724;32;34649;-75
2024/01/18 11:08:56;;;;;;;68.72;45.20;;;;;;;5.35;100.00;98160.94;5547777;32;32703;-76
2024/01/18 11:12:03;;;;;;;75.50;47.88;;;;;;;5.12;100.00;98129.59;5548578;32;34950;-74
2024/01/18 11:15:07;;;;;;;78.95;49.67;;;;;;;5.13;100.00;98154.06;5548246;32;34077;-73
2024/01/18 11:18:13;;;;;;;75.87;50.28;;;;;;;5.20;100.00;98145.25;5549981;32;33837;-74
2024/01/18 11:21:16;;;;;;;78.53;50.95;;;;;;;5.12;100.00;98144.56;5550911;32;33986;-74
2024/01/18 11:24:21;;;;;;;85.40;54.50;;;;;;;5.14;100.00;98135.47;5550151;32;35003;-74
2024/01/18 11:27:25;;;;;;;84.82;54.58;;;;;;;5.10;100.00;98142.09;5550879;32;34033;-75
2024/01/18 11:30:34;;;;;;;83.68;54.95;;;;;;;5.15;100.00;98141.53;5549823;32;33961;-74
2024/01/18 11:33:38;;;;;;;80.87;53.23;;;;;;;5.19;100.00;98132.28;5550957;32;33825;-74
2024/01/18 11:36:50;;;;;;;77.60;51.47;;;;;;;5.45;100.00;98136.97;5550799;32;34567;-73
2024/01/18 11:39:54;;;;;;;76.72;49.10;;;;;;;5.28;100.00;98122.47;5550724;32;34135;-74
2024/01/18 11:42:59;;;;;;;77.47;48.63;;;;;;;5.36;100.00;98128.41;5550662;32;33947;-74
2024/01/18 11:46:02;;;;;;;66.55;45.65;;;;;;;5.44;100.00;98116.91;5550063;32;33889;-75
2024/01/18 11:49:06;;;;;;;62.17;43.22;;;;;;;5.45;100.00;98115.94;5549931;32;33890;-74
2024/01/18 11:52:12;;;;;;;62.33;42.85;;;;;;;5.50;100.00;98114.34;5550818;32;34630;-74
2024/01/18 11:55:17;;;;;;;55.55;40.83;;;;;;;5.33;100.00;98138.47;5550212;32;33989;-73
2024/01/18 11:58:20;;;;;;;64.35;43.22;;;;;;;5.23;100.00;98110.69;5550673;32;34604;-73
2024/01/18 12:01:24;;;;;;;65.37;45.45;;;;;;;5.15;100.00;98125.78;5550699;32;34671;-74
2024/01/18 12:04:27;;;;;;;73.05;48.05;;;;;;;5.15;100.00;98121.34;5550539;32;34657;-73
2024/01/18 12:07:32;;;;;;;70.93;48.40;;;;;;;5.28;100.00;98106.69;5549731;32;34158;-74
2024/01/18 12:10:35;;;;;;;69.12;47.05;;;;;;;5.27;100.00;98111.13;5550724;32;34987;-73
2024/01/18 12:13:41;;;;;;;61.83;44.75;;;;;;;5.20;100.00;98115.50;5550402;32;33964;-73
2024/01/18 12:16:44;;;;;;;63.15;44.70;;;;;;;5.30;100.00;98116.00;5550505;32;34743;-73
2024/01/18 12:19:47;;;;;;;56.50;40.78;;;;;;;5.42;100.00;98111.06;5549606;32;33888;-73
2024/01/18 12:22:50;;;;;;;56.08;39.58;;;;;;;5.40;100.00;98110.41;5550463;32;34133;-74
2024/01/18 12:25:53;;;;;;;57.70;40.28;;;;;;;5.40;100.00;98110.41;5550571;32;33899;-74
2024/01/18 12:28:57;;;;;;;54.22;37.80;;;;;;;5.35;100.00;98104.91;5550174;32;34062;-74
2024/01/18 12:32:02;;;;;;;53.05;37.80;;;;;;;5.41;100.00;98104.16;5550605;32;33994;-73
2024/01/18 12:35:05;;;;;;;51.00;37.15;;;;;;;5.31;100.00;98108.94;5550269;32;34125;-72
2024/01/18 12:38:08;;;;;;;55.22;38.70;;;;;;;5.43;100.00;98097.69;5550345;32;33932;-72
2024/01/18 12:41:11;;;;;;;51.95;36.97;;;;;;;5.41;100.00;98098.91;5550340;32;34863;-74
2024/01/18 12:44:15;;;;;;;45.65;33.75;;;;;;;5.45;100.00;98102.78;5550427;32;33967;-73
2024/01/18 12:47:18;;;;;;;41.65;31.40;;;;;;;5.41;100.00;98094.47;5550442;32;33970;-74
2024/01/18 12:50:21;;;;;;;40.92;30.52;;;;;;;5.36;100.00;98107.38;5550125;32;34970;-74
2024/01/18 12:53:24;;;;;;;48.85;30.25;;;;;;;5.40;100.00;98103.34;5549368;32;33889;-74
2024/01/18 12:56:30;;;;;;;44.13;30.37;;;;;;;5.41;100.00;98096.28;5550448;32;33949;-75
2024/01/18 12:59:33;;;;;;;41.35;29.77;;;;;;;5.45;100.00;98093.06;5550456;32;34625;-74
2024/01/18 13:02:37;;;;;;;39.42;28.10;;;;;;;5.56;100.00;98087.31;5550195;32;33924;-74
2024/01/18 13:05:48;;;;;;;42.92;28.00;;;;;;;5.55;100.00;98100.63;5550093;32;34016;-74
2024/01/18 13:08:51;;;;;;;38.60;28.23;;;;;;;5.60;100.00;98099.06;5549264;32;34059;-75
2024/01/18 13:12:01;;;;;;;36.67;26.52;;;;;;;5.82;100.00;98110.31;5549609;32;33986;-74
2024/01/18 13:15:04;;;;;;;28.85;22.17;;;;;;;6.24;100.00;98111.22;5549274;32;34254;-74
2024/01/18 13:18:11;;;;;;;29.00;22.10;;;;;;;5.92;100.00;98115.25;5550138;32;34140;-74
2024/01/18 13:21:14;;;;;;;29.48;21.87;;;;;;;6.18;100.00;98117.25;5550042;32;35447;-74
2024/01/18 13:24:20;;;;;;;27.48;20.33;;;;;;;6.44;100.00;98112.91;5549813;32;34040;-73
2024/01/18 13:27:23;;;;;;;27.17;18.90;;;;;;;6.72;100.00;98117.28;5549799;32;34064;-74
2024/01/18 13:30:27;;;;;;;23.98;18.95;;;;;;;6.13;100.00;98125.72;5548741;32;34185;-73
2024/01/18 13:33:30;;;;;;;27.80;19.65;;;;;;;6.20;100.00;98129.19;5549026;32;34128;-73
2024/01/18 13:36:34;;;;;;;26.70;19.75;;;;;;;6.10;100.00;98137.44;5548984;32;35016;-73
2024/01/18 13:39:36;;;;;;;26.62;19.83;;;;;;;6.13;100.00;98136.25;5548857;32;34039;-74
2024/01/18 13:42:41;;;;;;;28.17;20.73;;;;;;;6.24;100.00;98143.63;5549902;32;33969;-73
2024/01/18 13:45:44;;;;;;;29.95;21.27;;;;;;;6.15;100.00;98139.50;5549700;32;34579;-73
2024/01/18 13:48:47;;;;;;;29.75;20.10;;;;;;;5.99;100.00;98137.19;5549603;32;34087;-73
2024/01/18 13:51:50;;;;;;;31.15;21.75;;;;;;;6.12;100.00;98138.06;5549507;32;34883;-73
2024/01/18 13:54:53;;;;;;;30.95;21.65;;;;;;;6.17;100.00;98129.59;5549348;32;34592;-73
2024/01/18 13:57:57;;;;;;;30.10;21.60;;;;;;;6.26;100.00;98131.06;5549484;32;34758;-73
2024/01/18 14:01:01;;;;;;;29.75;21.02;;;;;;;6.30;100.00;98140.19;5549309;32;34610;-74
2024/01/18 14:04:04;;;;;;;29.52;20.80;;;;;;;6.41;100.00;98137.00;5549465;32;34034;-73